Terminal Aerodrome Forecast
Issued by NWS Cleveland, OH

Home | Current Version | Previous Version | Graphics & Text | Print | Product List | Glossary On
Versions: 1 2 3 4 5 6 7 8 9 10 11 12 13 14 15 16 17 18 19 20 21 22 23 24 25 26 27
000
FTUS41 KCLE 061500 AAA
TAFCAK
TAF AMD
KCAK 061506Z 0615/0712 32005KT 3SM HZ BKN008 BKN250
     FM061700 32006KT P6SM SCT015 BKN250
     FM070600 VRB03KT 4SM BR SCT250
     FM070800 00000KT 2SM BR SCT004=

USA.gov is the U.S. government's official web portal to all federal, state and local government web resources and services.